Philadelphia, Pennsylvania
Traffic Map
Current Weather Conditions
Philadelphia, Pennsylvania
Clear
Clear
35°
Feels Like: 28°
Wind Chill: 28° Ceiling: Unl
Heat Index: 35° Visibility: 10mi
Dew Point: 20° Wind: 9mph
Humidity: 54% Direction: 310° (NW)
Pressure: 30.15in Gusts: 0mph
Raw Report DataKPHL 230754Z 31008KT 10SM CLR 02/M07 A3015 RMK AO2 SLP208 T00171067
Traffic Incident Summary
Active as of:
Severity:
Category:
InformationThere was an issue retrieving the traffic information for this location. Please try a different location or try again shortly.
Advertisements